sensor_id;sensor_type;location;lat;lon;timestamp;P1;durP1;ratioP1;P2;durP2;ratioP2
82671;SDS011;72378;52.468;13.432;2023-09-12T00:03:48;12.27;;;8.20;;
82671;SDS011;72378;52.468;13.432;2023-09-12T00:08:40;14.50;;;8.30;;
82671;SDS011;72378;52.468;13.432;2023-09-12T00:11:08;15.15;;;8.75;;
82671;SDS011;72378;52.468;13.432;2023-09-12T00:13:37;14.73;;;9.80;;
82671;SDS011;72378;52.468;13.432;2023-09-12T00:16:04;14.05;;;8.75;;
82671;SDS011;72378;52.468;13.432;2023-09-12T00:18:31;15.48;;;8.70;;
82671;SDS011;72378;52.468;13.432;2023-09-12T00:20:59;13.23;;;8.55;;
82671;SDS011;72378;52.468;13.432;2023-09-12T00:23:26;17.60;;;9.60;;
82671;SDS011;72378;52.468;13.432;2023-09-12T00:25:53;13.32;;;8.98;;
82671;SDS011;72378;52.468;13.432;2023-09-12T00:30:46;16.60;;;9.82;;
82671;SDS011;72378;52.468;13.432;2023-09-12T00:33:13;15.27;;;8.88;;
82671;SDS011;72378;52.468;13.432;2023-09-12T00:38:05;15.48;;;8.50;;
82671;SDS011;72378;52.468;13.432;2023-09-12T00:40:32;14.05;;;9.10;;
82671;SDS011;72378;52.468;13.432;2023-09-12T00:42:58;12.93;;;8.45;;
82671;SDS011;72378;52.468;13.432;2023-09-12T00:45:25;16.55;;;8.65;;
82671;SDS011;72378;52.468;13.432;2023-09-12T00:47:52;13.88;;;8.75;;
82671;SDS011;72378;52.468;13.432;2023-09-12T00:50:19;12.63;;;8.50;;
82671;SDS011;72378;52.468;13.432;2023-09-12T00:52:48;12.38;;;8.10;;
82671;SDS011;72378;52.468;13.432;2023-09-12T00:55:15;15.80;;;8.57;;
82671;SDS011;72378;52.468;13.432;2023-09-12T00:57:42;14.98;;;8.73;;
82671;SDS011;72378;52.468;13.432;2023-09-12T01:00:10;13.20;;;9.00;;
82671;SDS011;72378;52.468;13.432;2023-09-12T01:02:38;13.40;;;8.52;;
82671;SDS011;72378;52.468;13.432;2023-09-12T01:05:07;13.45;;;9.00;;
82671;SDS011;72378;52.468;13.432;2023-09-12T01:07:34;14.73;;;8.57;;
82671;SDS011;72378;52.468;13.432;2023-09-12T01:10:01;15.15;;;8.90;;
82671;SDS011;72378;52.468;13.432;2023-09-12T01:12:28;13.80;;;8.73;;
82671;SDS011;72378;52.468;13.432;2023-09-12T01:14:55;15.43;;;9.60;;
82671;SDS011;72378;52.468;13.432;2023-09-12T01:19:47;16.40;;;9.20;;
82671;SDS011;72378;52.468;13.432;2023-09-12T01:25:22;15.60;;;9.18;;
82671;SDS011;72378;52.468;13.432;2023-09-12T01:28:02;16.77;;;9.18;;
82671;SDS011;72378;52.468;13.432;2023-09-12T01:30:31;13.15;;;8.43;;
82671;SDS011;72378;52.468;13.432;2023-09-12T01:32:59;15.40;;;9.20;;
82671;SDS011;72378;52.468;13.432;2023-09-12T01:35:26;14.65;;;9.82;;
82671;SDS011;72378;52.468;13.432;2023-09-12T01:37:52;17.55;;;10.35;;
82671;SDS011;72378;52.468;13.432;2023-09-12T01:40:18;18.23;;;10.35;;
82671;SDS011;72378;52.468;13.432;2023-09-12T01:42:58;17.02;;;10.55;;
82671;SDS011;72378;52.468;13.432;2023-09-12T01:45:27;18.63;;;10.38;;
82671;SDS011;72378;52.468;13.432;2023-09-12T01:47:54;14.27;;;9.75;;
82671;SDS011;72378;52.468;13.432;2023-09-12T01:50:21;18.13;;;10.45;;
82671;SDS011;72378;52.468;13.432;2023-09-12T01:52:48;16.98;;;9.95;;
82671;SDS011;72378;52.468;13.432;2023-09-12T01:55:15;14.40;;;9.77;;
82671;SDS011;72378;52.468;13.432;2023-09-12T01:57:42;16.00;;;9.88;;
82671;SDS011;72378;52.468;13.432;2023-09-12T02:00:09;15.57;;;9.82;;
82671;SDS011;72378;52.468;13.432;2023-09-12T02:02:38;15.68;;;10.02;;
82671;SDS011;72378;52.468;13.432;2023-09-12T02:05:07;18.25;;;10.38;;
82671;SDS011;72378;52.468;13.432;2023-09-12T02:07:38;15.00;;;10.20;;
82671;SDS011;72378;52.468;13.432;2023-09-12T02:10:07;15.30;;;9.90;;
82671;SDS011;72378;52.468;13.432;2023-09-12T02:12:34;18.92;;;9.73;;
82671;SDS011;72378;52.468;13.432;2023-09-12T02:15:02;18.88;;;9.98;;
82671;SDS011;72378;52.468;13.432;2023-09-12T02:17:29;15.98;;;10.20;;
82671;SDS011;72378;52.468;13.432;2023-09-12T02:19:56;17.50;;;10.15;;
82671;SDS011;72378;52.468;13.432;2023-09-12T02:22:23;13.38;;;9.38;;
82671;SDS011;72378;52.468;13.432;2023-09-12T02:24:49;14.82;;;8.52;;
82671;SDS011;72378;52.468;13.432;2023-09-12T02:29:41;13.98;;;9.45;;
82671;SDS011;72378;52.468;13.432;2023-09-12T02:32:08;13.82;;;9.52;;
82671;SDS011;72378;52.468;13.432;2023-09-12T02:34:35;15.10;;;9.43;;
82671;SDS011;72378;52.468;13.432;2023-09-12T02:37:03;17.98;;;11.15;;
82671;SDS011;72378;52.468;13.432;2023-09-12T02:39:29;17.45;;;10.75;;
82671;SDS011;72378;52.468;13.432;2023-09-12T02:41:55;13.43;;;8.93;;
82671;SDS011;72378;52.468;13.432;2023-09-12T02:44:22;15.00;;;9.68;;
82671;SDS011;72378;52.468;13.432;2023-09-12T02:46:48;15.48;;;9.35;;
82671;SDS011;72378;52.468;13.432;2023-09-12T02:49:14;14.13;;;9.65;;
82671;SDS011;72378;52.468;13.432;2023-09-12T02:51:40;14.88;;;9.05;;
82671;SDS011;72378;52.468;13.432;2023-09-12T02:56:34;13.32;;;8.73;;
82671;SDS011;72378;52.468;13.432;2023-09-12T02:59:00;14.93;;;9.10;;
82671;SDS011;72378;52.468;13.432;2023-09-12T03:01:27;14.68;;;9.02;;
82671;SDS011;72378;52.468;13.432;2023-09-12T03:03:53;14.00;;;9.63;;
82671;SDS011;72378;52.468;13.432;2023-09-12T03:06:20;14.43;;;9.55;;
82671;SDS011;72378;52.468;13.432;2023-09-12T03:08:47;14.88;;;8.93;;
82671;SDS011;72378;52.468;13.432;2023-09-12T03:11:14;15.20;;;9.98;;
82671;SDS011;72378;52.468;13.432;2023-09-12T03:13:41;39.75;;;23.58;;
82671;SDS011;72378;52.468;13.432;2023-09-12T03:16:09;14.57;;;9.65;;
82671;SDS011;72378;52.468;13.432;2023-09-12T03:18:35;14.88;;;9.82;;
82671;SDS011;72378;52.468;13.432;2023-09-12T03:21:02;15.40;;;9.10;;
82671;SDS011;72378;52.468;13.432;2023-09-12T03:23:28;15.60;;;9.77;;
82671;SDS011;72378;52.468;13.432;2023-09-12T03:25:54;14.15;;;9.05;;
82671;SDS011;72378;52.468;13.432;2023-09-12T03:30:48;15.65;;;9.52;;
82671;SDS011;72378;52.468;13.432;2023-09-12T03:33:14;15.27;;;9.93;;
82671;SDS011;72378;52.468;13.432;2023-09-12T03:35:42;16.13;;;9.63;;
82671;SDS011;72378;52.468;13.432;2023-09-12T03:38:09;19.25;;;11.15;;
82671;SDS011;72378;52.468;13.432;2023-09-12T03:40:35;20.60;;;10.90;;
82671;SDS011;72378;52.468;13.432;2023-09-12T03:43:02;15.90;;;10.18;;
82671;SDS011;72378;52.468;13.432;2023-09-12T03:45:29;14.90;;;10.15;;
82671;SDS011;72378;52.468;13.432;2023-09-12T03:47:56;16.77;;;10.85;;
82671;SDS011;72378;52.468;13.432;2023-09-12T03:50:22;15.98;;;10.60;;
82671;SDS011;72378;52.468;13.432;2023-09-12T03:55:14;21.45;;;10.38;;
82671;SDS011;72378;52.468;13.432;2023-09-12T03:57:41;19.58;;;11.55;;
82671;SDS011;72378;52.468;13.432;2023-09-12T04:00:08;18.58;;;11.88;;
82671;SDS011;72378;52.468;13.432;2023-09-12T04:02:36;17.63;;;11.68;;
82671;SDS011;72378;52.468;13.432;2023-09-12T04:05:02;15.65;;;10.75;;
82671;SDS011;72378;52.468;13.432;2023-09-12T04:07:29;18.65;;;10.75;;
82671;SDS011;72378;52.468;13.432;2023-09-12T04:09:55;18.30;;;10.93;;
82671;SDS011;72378;52.468;13.432;2023-09-12T04:12:21;16.52;;;11.15;;
82671;SDS011;72378;52.468;13.432;2023-09-12T04:14:48;17.55;;;11.70;;
82671;SDS011;72378;52.468;13.432;2023-09-12T04:17:15;18.92;;;11.38;;
82671;SDS011;72378;52.468;13.432;2023-09-12T04:19:42;16.00;;;10.55;;
82671;SDS011;72378;52.468;13.432;2023-09-12T04:22:09;17.85;;;11.70;;
82671;SDS011;72378;52.468;13.432;2023-09-12T04:27:01;17.48;;;10.50;;
82671;SDS011;72378;52.468;13.432;2023-09-12T04:29:28;16.83;;;10.80;;
82671;SDS011;72378;52.468;13.432;2023-09-12T04:31:54;16.27;;;10.95;;
82671;SDS011;72378;52.468;13.432;2023-09-12T04:34:24;17.73;;;11.73;;
82671;SDS011;72378;52.468;13.432;2023-09-12T04:36:52;17.52;;;12.00;;
82671;SDS011;72378;52.468;13.432;2023-09-12T04:39:19;16.83;;;10.98;;
82671;SDS011;72378;52.468;13.432;2023-09-12T04:44:11;18.20;;;11.00;;
82671;SDS011;72378;52.468;13.432;2023-09-12T04:49:04;16.20;;;11.20;;
82671;SDS011;72378;52.468;13.432;2023-09-12T04:53:58;19.10;;;11.20;;
82671;SDS011;72378;52.468;13.432;2023-09-12T04:56:24;17.17;;;10.98;;
82671;SDS011;72378;52.468;13.432;2023-09-12T05:01:17;19.20;;;11.13;;
82671;SDS011;72378;52.468;13.432;2023-09-12T05:03:43;20.23;;;11.88;;
82671;SDS011;72378;52.468;13.432;2023-09-12T05:06:10;17.23;;;10.85;;
82671;SDS011;72378;52.468;13.432;2023-09-12T05:08:36;17.70;;;12.07;;
82671;SDS011;72378;52.468;13.432;2023-09-12T05:11:04;18.10;;;12.10;;
82671;SDS011;72378;52.468;13.432;2023-09-12T05:13:30;15.82;;;11.30;;
82671;SDS011;72378;52.468;13.432;2023-09-12T05:15:57;17.65;;;12.07;;
82671;SDS011;72378;52.468;13.432;2023-09-12T05:18:23;20.65;;;12.52;;
82671;SDS011;72378;52.468;13.432;2023-09-12T05:23:15;17.55;;;11.48;;
82671;SDS011;72378;52.468;13.432;2023-09-12T05:28:09;17.70;;;10.98;;
82671;SDS011;72378;52.468;13.432;2023-09-12T05:30:35;21.35;;;12.70;;
82671;SDS011;72378;52.468;13.432;2023-09-12T05:33:02;16.75;;;12.02;;
82671;SDS011;72378;52.468;13.432;2023-09-12T05:35:28;20.83;;;12.23;;
82671;SDS011;72378;52.468;13.432;2023-09-12T05:37:55;17.48;;;11.18;;
82671;SDS011;72378;52.468;13.432;2023-09-12T05:40:21;17.67;;;11.85;;
82671;SDS011;72378;52.468;13.432;2023-09-12T05:45:15;16.90;;;11.25;;
82671;SDS011;72378;52.468;13.432;2023-09-12T05:47:41;17.05;;;11.98;;
82671;SDS011;72378;52.468;13.432;2023-09-12T05:50:07;19.60;;;11.65;;
82671;SDS011;72378;52.468;13.432;2023-09-12T05:52:34;18.30;;;11.77;;
82671;SDS011;72378;52.468;13.432;2023-09-12T05:55:01;16.05;;;11.18;;
82671;SDS011;72378;52.468;13.432;2023-09-12T05:57:29;18.10;;;11.63;;
82671;SDS011;72378;52.468;13.432;2023-09-12T05:59:58;15.32;;;11.20;;
82671;SDS011;72378;52.468;13.432;2023-09-12T06:02:27;16.10;;;11.30;;
82671;SDS011;72378;52.468;13.432;2023-09-12T06:04:53;20.02;;;12.13;;
82671;SDS011;72378;52.468;13.432;2023-09-12T06:07:20;17.92;;;12.15;;
82671;SDS011;72378;52.468;13.432;2023-09-12T06:12:12;17.17;;;11.63;;
82671;SDS011;72378;52.468;13.432;2023-09-12T06:17:05;17.15;;;11.95;;
82671;SDS011;72378;52.468;13.432;2023-09-12T06:21:59;18.08;;;11.95;;
82671;SDS011;72378;52.468;13.432;2023-09-12T06:26:51;25.20;;;11.70;;
82671;SDS011;72378;52.468;13.432;2023-09-12T06:29:18;16.90;;;12.18;;
82671;SDS011;72378;52.468;13.432;2023-09-12T06:34:10;15.95;;;11.98;;
82671;SDS011;72378;52.468;13.432;2023-09-12T06:39:06;16.90;;;10.30;;
82671;SDS011;72378;52.468;13.432;2023-09-12T06:41:32;19.23;;;11.70;;
82671;SDS011;72378;52.468;13.432;2023-09-12T06:43:59;17.58;;;11.20;;
82671;SDS011;72378;52.468;13.432;2023-09-12T06:46:26;17.98;;;12.57;;
82671;SDS011;72378;52.468;13.432;2023-09-12T06:48:52;17.98;;;10.82;;
82671;SDS011;72378;52.468;13.432;2023-09-12T06:53:50;16.08;;;10.73;;
82671;SDS011;72378;52.468;13.432;2023-09-12T06:56:16;20.08;;;10.05;;
82671;SDS011;72378;52.468;13.432;2023-09-12T07:01:09;16.65;;;9.40;;
82671;SDS011;72378;52.468;13.432;2023-09-12T07:03:35;16.02;;;8.82;;
82671;SDS011;72378;52.468;13.432;2023-09-12T07:06:02;19.70;;;9.60;;
82671;SDS011;72378;52.468;13.432;2023-09-12T07:08:30;13.50;;;8.50;;
82671;SDS011;72378;52.468;13.432;2023-09-12T07:10:59;16.95;;;9.55;;
82671;SDS011;72378;52.468;13.432;2023-09-12T07:13:30;13.82;;;8.68;;
82671;SDS011;72378;52.468;13.432;2023-09-12T07:15:57;14.13;;;8.48;;
82671;SDS011;72378;52.468;13.432;2023-09-12T07:18:23;14.65;;;8.20;;
82671;SDS011;72378;52.468;13.432;2023-09-12T07:20:56;15.70;;;8.18;;
82671;SDS011;72378;52.468;13.432;2023-09-12T07:23:23;13.32;;;8.88;;
82671;SDS011;72378;52.468;13.432;2023-09-12T07:25:49;13.93;;;8.90;;
82671;SDS011;72378;52.468;13.432;2023-09-12T07:28:17;14.23;;;7.43;;
82671;SDS011;72378;52.468;13.432;2023-09-12T07:30:45;10.25;;;6.93;;
82671;SDS011;72378;52.468;13.432;2023-09-12T07:33:11;14.13;;;7.88;;
82671;SDS011;72378;52.468;13.432;2023-09-12T07:35:38;14.27;;;8.32;;
82671;SDS011;72378;52.468;13.432;2023-09-12T07:38:04;12.82;;;7.60;;
82671;SDS011;72378;52.468;13.432;2023-09-12T07:40:31;17.17;;;7.68;;
82671;SDS011;72378;52.468;13.432;2023-09-12T07:42:57;14.77;;;7.82;;
82671;SDS011;72378;52.468;13.432;2023-09-12T07:45:25;15.93;;;7.88;;
82671;SDS011;72378;52.468;13.432;2023-09-12T07:47:52;16.17;;;7.18;;
82671;SDS011;72378;52.468;13.432;2023-09-12T07:50:19;16.92;;;8.02;;
82671;SDS011;72378;52.468;13.432;2023-09-12T07:52:45;15.38;;;8.25;;
82671;SDS011;72378;52.468;13.432;2023-09-12T07:55:11;14.85;;;7.50;;
82671;SDS011;72378;52.468;13.432;2023-09-12T07:57:38;15.38;;;7.65;;
82671;SDS011;72378;52.468;13.432;2023-09-12T08:00:05;17.23;;;8.65;;
82671;SDS011;72378;52.468;13.432;2023-09-12T08:02:36;14.68;;;6.75;;
82671;SDS011;72378;52.468;13.432;2023-09-12T08:05:02;11.48;;;6.95;;
82671;SDS011;72378;52.468;13.432;2023-09-12T08:07:28;11.90;;;7.38;;
82671;SDS011;72378;52.468;13.432;2023-09-12T08:09:55;13.13;;;7.25;;
82671;SDS011;72378;52.468;13.432;2023-09-12T08:12:23;16.23;;;7.47;;
82671;SDS011;72378;52.468;13.432;2023-09-12T08:14:50;15.63;;;6.85;;
82671;SDS011;72378;52.468;13.432;2023-09-12T08:17:17;17.15;;;7.47;;
82671;SDS011;72378;52.468;13.432;2023-09-12T08:19:45;17.02;;;7.38;;
82671;SDS011;72378;52.468;13.432;2023-09-12T08:22:12;17.33;;;7.85;;
82671;SDS011;72378;52.468;13.432;2023-09-12T08:24:39;13.68;;;8.02;;
82671;SDS011;72378;52.468;13.432;2023-09-12T08:27:05;14.60;;;7.75;;
82671;SDS011;72378;52.468;13.432;2023-09-12T08:29:34;15.65;;;7.22;;
82671;SDS011;72378;52.468;13.432;2023-09-12T08:32:00;14.05;;;7.07;;
82671;SDS011;72378;52.468;13.432;2023-09-12T08:34:27;17.05;;;7.07;;
82671;SDS011;72378;52.468;13.432;2023-09-12T08:36:55;16.10;;;8.10;;
82671;SDS011;72378;52.468;13.432;2023-09-12T08:39:23;16.17;;;7.78;;
82671;SDS011;72378;52.468;13.432;2023-09-12T08:41:51;15.27;;;7.30;;
82671;SDS011;72378;52.468;13.432;2023-09-12T08:44:19;17.38;;;7.50;;
82671;SDS011;72378;52.468;13.432;2023-09-12T08:46:47;16.45;;;7.18;;
82671;SDS011;72378;52.468;13.432;2023-09-12T08:49:13;16.75;;;6.93;;
82671;SDS011;72378;52.468;13.432;2023-09-12T08:51:40;14.50;;;6.50;;
82671;SDS011;72378;52.468;13.432;2023-09-12T08:54:08;13.27;;;6.50;;
82671;SDS011;72378;52.468;13.432;2023-09-12T08:56:35;17.50;;;6.68;;
82671;SDS011;72378;52.468;13.432;2023-09-12T08:59:03;16.25;;;6.28;;
82671;SDS011;72378;52.468;13.432;2023-09-12T09:01:30;15.10;;;7.32;;
82671;SDS011;72378;52.468;13.432;2023-09-12T09:03:57;16.60;;;6.45;;
82671;SDS011;72378;52.468;13.432;2023-09-12T09:06:24;13.20;;;6.13;;
82671;SDS011;72378;52.468;13.432;2023-09-12T09:08:52;16.70;;;7.45;;
82671;SDS011;72378;52.468;13.432;2023-09-12T09:11:21;15.60;;;6.85;;
82671;SDS011;72378;52.468;13.432;2023-09-12T09:13:47;15.38;;;7.53;;
82671;SDS011;72378;52.468;13.432;2023-09-12T09:16:14;13.57;;;6.28;;
82671;SDS011;72378;52.468;13.432;2023-09-12T09:18:53;13.27;;;6.38;;
82671;SDS011;72378;52.468;13.432;2023-09-12T09:21:22;16.80;;;7.28;;
82671;SDS011;72378;52.468;13.432;2023-09-12T09:23:50;15.85;;;5.97;;
82671;SDS011;72378;52.468;13.432;2023-09-12T09:26:17;18.85;;;5.95;;
82671;SDS011;72378;52.468;13.432;2023-09-12T09:28:45;15.52;;;6.72;;
82671;SDS011;72378;52.468;13.432;2023-09-12T09:31:12;16.80;;;6.75;;
82671;SDS011;72378;52.468;13.432;2023-09-12T09:33:39;16.58;;;6.55;;
82671;SDS011;72378;52.468;13.432;2023-09-12T09:36:10;19.17;;;7.43;;
82671;SDS011;72378;52.468;13.432;2023-09-12T09:38:37;13.73;;;7.15;;
82671;SDS011;72378;52.468;13.432;2023-09-12T09:41:04;15.25;;;6.03;;
82671;SDS011;72378;52.468;13.432;2023-09-12T09:43:31;13.32;;;5.88;;
82671;SDS011;72378;52.468;13.432;2023-09-12T09:46:00;16.38;;;6.65;;
82671;SDS011;72378;52.468;13.432;2023-09-12T09:48:27;18.15;;;6.85;;
82671;SDS011;72378;52.468;13.432;2023-09-12T09:51:00;16.10;;;6.80;;
82671;SDS011;72378;52.468;13.432;2023-09-12T09:53:27;16.83;;;7.35;;
82671;SDS011;72378;52.468;13.432;2023-09-12T09:56:06;18.73;;;7.53;;
82671;SDS011;72378;52.468;13.432;2023-09-12T09:58:34;11.77;;;7.43;;
82671;SDS011;72378;52.468;13.432;2023-09-12T10:01:01;15.13;;;8.70;;
82671;SDS011;72378;52.468;13.432;2023-09-12T10:03:29;19.50;;;9.88;;
82671;SDS011;72378;52.468;13.432;2023-09-12T10:05:59;20.65;;;10.00;;
82671;SDS011;72378;52.468;13.432;2023-09-12T10:08:29;14.98;;;7.78;;
82671;SDS011;72378;52.468;13.432;2023-09-12T10:10:58;17.45;;;10.07;;
82671;SDS011;72378;52.468;13.432;2023-09-12T10:13:25;17.15;;;9.63;;
82671;SDS011;72378;52.468;13.432;2023-09-12T10:15:57;21.20;;;10.38;;
82671;SDS011;72378;52.468;13.432;2023-09-12T10:18:28;15.02;;;8.70;;
82671;SDS011;72378;52.468;13.432;2023-09-12T10:21:03;17.13;;;9.27;;
82671;SDS011;72378;52.468;13.432;2023-09-12T10:23:34;14.20;;;10.93;;
82671;SDS011;72378;52.468;13.432;2023-09-12T10:26:06;18.65;;;12.15;;
82671;SDS011;72378;52.468;13.432;2023-09-12T10:28:35;17.00;;;10.70;;
82671;SDS011;72378;52.468;13.432;2023-09-12T10:31:02;17.80;;;9.93;;
82671;SDS011;72378;52.468;13.432;2023-09-12T10:33:32;15.63;;;10.23;;
82671;SDS011;72378;52.468;13.432;2023-09-12T10:35:59;18.50;;;10.00;;
82671;SDS011;72378;52.468;13.432;2023-09-12T10:38:26;17.52;;;10.20;;
82671;SDS011;72378;52.468;13.432;2023-09-12T10:40:54;16.63;;;9.65;;
82671;SDS011;72378;52.468;13.432;2023-09-12T10:43:21;16.90;;;9.20;;
82671;SDS011;72378;52.468;13.432;2023-09-12T10:45:51;20.52;;;12.13;;
82671;SDS011;72378;52.468;13.432;2023-09-12T10:48:18;19.88;;;8.52;;
82671;SDS011;72378;52.468;13.432;2023-09-12T10:50:46;24.67;;;17.00;;
82671;SDS011;72378;52.468;13.432;2023-09-12T10:53:14;20.08;;;10.85;;
82671;SDS011;72378;52.468;13.432;2023-09-12T10:55:41;17.88;;;10.20;;
82671;SDS011;72378;52.468;13.432;2023-09-12T10:58:08;28.75;;;20.55;;
82671;SDS011;72378;52.468;13.432;2023-09-12T11:00:36;14.63;;;9.35;;
82671;SDS011;72378;52.468;13.432;2023-09-12T11:06:03;20.83;;;8.55;;
82671;SDS011;72378;52.468;13.432;2023-09-12T11:08:33;19.02;;;8.63;;
82671;SDS011;72378;52.468;13.432;2023-09-12T11:11:16;17.33;;;8.80;;
82671;SDS011;72378;52.468;13.432;2023-09-12T11:13:44;20.50;;;7.57;;
82671;SDS011;72378;52.468;13.432;2023-09-12T11:16:11;17.90;;;7.53;;
82671;SDS011;72378;52.468;13.432;2023-09-12T11:21:45;18.13;;;6.80;;
82671;SDS011;72378;52.468;13.432;2023-09-12T11:24:13;18.75;;;6.93;;
82671;SDS011;72378;52.468;13.432;2023-09-12T11:26:53;15.13;;;7.60;;
82671;SDS011;72378;52.468;13.432;2023-09-12T11:29:20;19.25;;;7.05;;
82671;SDS011;72378;52.468;13.432;2023-09-12T11:31:51;17.95;;;8.07;;
82671;SDS011;72378;52.468;13.432;2023-09-12T11:34:22;17.60;;;9.38;;
82671;SDS011;72378;52.468;13.432;2023-09-12T11:36:54;22.17;;;9.02;;
82671;SDS011;72378;52.468;13.432;2023-09-12T11:39:24;20.25;;;9.18;;
82671;SDS011;72378;52.468;13.432;2023-09-12T11:41:51;15.25;;;7.78;;
82671;SDS011;72378;52.468;13.432;2023-09-12T11:44:19;14.80;;;7.65;;
82671;SDS011;72378;52.468;13.432;2023-09-12T11:46:46;17.10;;;7.80;;
82671;SDS011;72378;52.468;13.432;2023-09-12T11:49:13;17.33;;;8.32;;
82671;SDS011;72378;52.468;13.432;2023-09-12T11:51:45;17.48;;;9.20;;
82671;SDS011;72378;52.468;13.432;2023-09-12T11:54:15;15.43;;;8.25;;
82671;SDS011;72378;52.468;13.432;2023-09-12T11:56:41;18.77;;;9.10;;
82671;SDS011;72378;52.468;13.432;2023-09-12T11:59:08;14.07;;;8.27;;
82671;SDS011;72378;52.468;13.432;2023-09-12T12:01:34;12.95;;;7.95;;
82671;SDS011;72378;52.468;13.432;2023-09-12T12:04:01;16.52;;;9.35;;
82671;SDS011;72378;52.468;13.432;2023-09-12T12:06:27;14.43;;;7.90;;
82671;SDS011;72378;52.468;13.432;2023-09-12T12:08:55;18.92;;;7.65;;
82671;SDS011;72378;52.468;13.432;2023-09-12T12:11:22;15.93;;;7.50;;
82671;SDS011;72378;52.468;13.432;2023-09-12T12:13:53;33.53;;;13.75;;
82671;SDS011;72378;52.468;13.432;2023-09-12T12:16:20;14.73;;;7.63;;
82671;SDS011;72378;52.468;13.432;2023-09-12T12:18:46;12.02;;;8.25;;
82671;SDS011;72378;52.468;13.432;2023-09-12T12:21:12;15.05;;;8.65;;
82671;SDS011;72378;52.468;13.432;2023-09-12T12:23:40;14.73;;;7.57;;
82671;SDS011;72378;52.468;13.432;2023-09-12T12:26:07;12.35;;;8.02;;
82671;SDS011;72378;52.468;13.432;2023-09-12T12:28:37;14.98;;;7.60;;
82671;SDS011;72378;52.468;13.432;2023-09-12T12:31:03;13.82;;;6.88;;
82671;SDS011;72378;52.468;13.432;2023-09-12T12:33:30;15.05;;;8.73;;
82671;SDS011;72378;52.468;13.432;2023-09-12T12:36:00;14.88;;;7.50;;
82671;SDS011;72378;52.468;13.432;2023-09-12T12:38:26;13.48;;;7.22;;
82671;SDS011;72378;52.468;13.432;2023-09-12T12:40:53;13.68;;;7.18;;
82671;SDS011;72378;52.468;13.432;2023-09-12T12:43:19;14.00;;;7.13;;
82671;SDS011;72378;52.468;13.432;2023-09-12T12:45:54;17.42;;;6.63;;
82671;SDS011;72378;52.468;13.432;2023-09-12T12:48:30;14.07;;;6.90;;
82671;SDS011;72378;52.468;13.432;2023-09-12T12:50:58;13.38;;;8.95;;
82671;SDS011;72378;52.468;13.432;2023-09-12T12:53:37;15.93;;;8.80;;
82671;SDS011;72378;52.468;13.432;2023-09-12T12:56:04;13.00;;;7.13;;
82671;SDS011;72378;52.468;13.432;2023-09-12T12:58:30;14.27;;;8.55;;
82671;SDS011;72378;52.468;13.432;2023-09-12T13:00:58;15.02;;;7.43;;
82671;SDS011;72378;52.468;13.432;2023-09-12T13:03:24;13.50;;;6.15;;
82671;SDS011;72378;52.468;13.432;2023-09-12T13:05:51;13.05;;;6.68;;
82671;SDS011;72378;52.468;13.432;2023-09-12T13:08:17;13.20;;;6.75;;
82671;SDS011;72378;52.468;13.432;2023-09-12T13:10:44;14.20;;;6.88;;
82671;SDS011;72378;52.468;13.432;2023-09-12T13:13:10;14.10;;;9.38;;
82671;SDS011;72378;52.468;13.432;2023-09-12T13:15:37;12.88;;;7.78;;
82671;SDS011;72378;52.468;13.432;2023-09-12T13:18:05;12.43;;;6.07;;
82671;SDS011;72378;52.468;13.432;2023-09-12T13:20:33;12.65;;;6.07;;
82671;SDS011;72378;52.468;13.432;2023-09-12T13:22:59;13.18;;;6.20;;
82671;SDS011;72378;52.468;13.432;2023-09-12T13:25:26;13.07;;;6.25;;
82671;SDS011;72378;52.468;13.432;2023-09-12T13:27:52;11.75;;;5.90;;
82671;SDS011;72378;52.468;13.432;2023-09-12T13:30:18;13.88;;;6.88;;
82671;SDS011;72378;52.468;13.432;2023-09-12T13:32:45;15.07;;;6.22;;
82671;SDS011;72378;52.468;13.432;2023-09-12T13:35:13;14.13;;;6.70;;
82671;SDS011;72378;52.468;13.432;2023-09-12T13:37:39;15.48;;;6.80;;
82671;SDS011;72378;52.468;13.432;2023-09-12T13:40:06;12.40;;;7.35;;
82671;SDS011;72378;52.468;13.432;2023-09-12T13:42:33;14.52;;;6.00;;
82671;SDS011;72378;52.468;13.432;2023-09-12T13:45:00;12.20;;;6.30;;
82671;SDS011;72378;52.468;13.432;2023-09-12T13:47:27;14.70;;;6.38;;
82671;SDS011;72378;52.468;13.432;2023-09-12T13:49:53;12.63;;;6.55;;
82671;SDS011;72378;52.468;13.432;2023-09-12T13:52:21;11.70;;;6.13;;
82671;SDS011;72378;52.468;13.432;2023-09-12T13:54:47;12.50;;;6.15;;
82671;SDS011;72378;52.468;13.432;2023-09-12T13:57:15;14.25;;;6.15;;
82671;SDS011;72378;52.468;13.432;2023-09-12T13:59:41;16.67;;;7.22;;
82671;SDS011;72378;52.468;13.432;2023-09-12T14:02:07;15.45;;;8.07;;
82671;SDS011;72378;52.468;13.432;2023-09-12T14:04:34;12.23;;;6.60;;
82671;SDS011;72378;52.468;13.432;2023-09-12T14:07:00;15.38;;;6.80;;
82671;SDS011;72378;52.468;13.432;2023-09-12T14:09:29;16.88;;;6.20;;
82671;SDS011;72378;52.468;13.432;2023-09-12T14:11:55;13.15;;;6.43;;
82671;SDS011;72378;52.468;13.432;2023-09-12T14:14:21;11.82;;;6.50;;
82671;SDS011;72378;52.468;13.432;2023-09-12T14:16:47;15.75;;;6.15;;
82671;SDS011;72378;52.468;13.432;2023-09-12T14:19:14;16.20;;;8.93;;
82671;SDS011;72378;52.468;13.432;2023-09-12T14:21:40;13.30;;;6.35;;
82671;SDS011;72378;52.468;13.432;2023-09-12T14:24:09;15.88;;;7.70;;
82671;SDS011;72378;52.468;13.432;2023-09-12T14:26:36;12.60;;;7.25;;
82671;SDS011;72378;52.468;13.432;2023-09-12T14:29:03;15.57;;;6.95;;
82671;SDS011;72378;52.468;13.432;2023-09-12T14:31:29;18.35;;;9.20;;
82671;SDS011;72378;52.468;13.432;2023-09-12T14:33:56;14.10;;;7.28;;
82671;SDS011;72378;52.468;13.432;2023-09-12T14:36:22;14.30;;;7.00;;
82671;SDS011;72378;52.468;13.432;2023-09-12T14:38:49;11.85;;;6.65;;
82671;SDS011;72378;52.468;13.432;2023-09-12T14:41:15;21.98;;;8.07;;
82671;SDS011;72378;52.468;13.432;2023-09-12T14:43:43;12.02;;;6.07;;
82671;SDS011;72378;52.468;13.432;2023-09-12T14:46:09;17.98;;;7.63;;
82671;SDS011;72378;52.468;13.432;2023-09-12T14:48:35;15.23;;;8.25;;
82671;SDS011;72378;52.468;13.432;2023-09-12T14:51:02;11.70;;;6.13;;
82671;SDS011;72378;52.468;13.432;2023-09-12T14:53:28;12.68;;;7.00;;
82671;SDS011;72378;52.468;13.432;2023-09-12T14:55:55;13.18;;;7.38;;
82671;SDS011;72378;52.468;13.432;2023-09-12T14:58:21;16.27;;;8.93;;
82671;SDS011;72378;52.468;13.432;2023-09-12T15:00:48;12.15;;;5.60;;
82671;SDS011;72378;52.468;13.432;2023-09-12T15:03:15;15.75;;;4.88;;
82671;SDS011;72378;52.468;13.432;2023-09-12T15:05:41;10.43;;;4.07;;
82671;SDS011;72378;52.468;13.432;2023-09-12T15:08:08;16.65;;;9.75;;
82671;SDS011;72378;52.468;13.432;2023-09-12T15:10:35;7.80;;;4.45;;
82671;SDS011;72378;52.468;13.432;2023-09-12T15:13:01;10.70;;;5.80;;
82671;SDS011;72378;52.468;13.432;2023-09-12T15:15:28;11.15;;;3.78;;
82671;SDS011;72378;52.468;13.432;2023-09-12T15:17:55;8.90;;;3.60;;
82671;SDS011;72378;52.468;13.432;2023-09-12T15:20:22;10.95;;;3.80;;
82671;SDS011;72378;52.468;13.432;2023-09-12T15:22:48;9.95;;;3.95;;
82671;SDS011;72378;52.468;13.432;2023-09-12T15:25:15;7.35;;;3.60;;
82671;SDS011;72378;52.468;13.432;2023-09-12T15:27:41;11.07;;;5.43;;
82671;SDS011;72378;52.468;13.432;2023-09-12T15:30:07;8.27;;;4.05;;